Time;durP1;ratioP1;P1;durP2;ratioP2;P2;SDS_P1;SDS_P2;PMS_P1;PMS_P2;Temp;Humidity;BMP_temperature;BMP_pressure;BME280_temperature;BME280_humidity;BME280_pressure;Samples;Min_cycle;Max_cycle;Signal;HPM_P1;HPM_P2
2023/09/18 00:01:56;;;;;;;32.03;23.08;;;16.90;99.90;;;;;;5029375;28;20053;-61
2023/09/18 00:04:22;;;;;;;32.78;23.92;;;16.90;99.90;;;;;;5017743;28;20041;-61
2023/09/18 00:06:49;;;;;;;30.30;23.13;;;16.90;99.90;;;;;;5017432;28;20057;-61
2023/09/18 00:09:16;;;;;;;34.03;24.17;;;16.90;99.90;;;;;;5017104;28;20054;-62
2023/09/18 00:11:43;;;;;;;29.85;22.67;;;16.90;99.90;;;;;;5050717;28;20045;-61
2023/09/18 00:14:10;;;;;;;33.00;21.27;;;16.90;99.90;;;;;;5017288;28;20053;-61
2023/09/18 00:16:39;;;;;;;26.52;20.20;;;16.90;99.90;;;;;;5016640;28;20077;-62
2023/09/18 00:19:07;;;;;;;22.60;17.83;;;16.90;99.90;;;;;;5051040;28;20045;-61
2023/09/18 00:21:35;;;;;;;24.80;19.35;;;16.90;99.90;;;;;;5017249;28;20045;-62
2023/09/18 00:24:02;;;;;;;26.85;20.23;;;16.90;99.90;;;;;;5050141;28;20049;-62
2023/09/18 00:26:29;;;;;;;31.67;21.50;;;16.80;99.90;;;;;;5016983;28;20065;-62
2023/09/18 00:28:56;;;;;;;29.23;21.20;;;16.80;99.90;;;;;;5017567;28;20049;-62
2023/09/18 00:31:23;;;;;;;26.27;21.88;;;16.80;99.90;;;;;;5016538;28;20057;-61
2023/09/18 00:33:51;;;;;;;27.17;21.60;;;16.90;99.90;;;;;;5017155;28;20060;-61
2023/09/18 00:36:18;;;;;;;26.67;21.48;;;16.90;99.90;;;;;;5016902;28;20562;-62
2023/09/18 00:38:46;;;;;;;29.45;21.23;;;16.90;99.90;;;;;;5016920;28;20383;-62
2023/09/18 00:41:13;;;;;;;36.95;22.45;;;16.90;99.90;;;;;;5050329;28;20090;-62
2023/09/18 00:43:40;;;;;;;26.85;21.98;;;16.90;99.90;;;;;;5017295;28;20058;-61
2023/09/18 00:46:07;;;;;;;30.90;22.23;;;16.90;99.90;;;;;;5031152;28;20049;-63
2023/09/18 00:48:34;;;;;;;30.75;24.73;;;16.90;99.90;;;;;;5029816;28;20056;-61
2023/09/18 00:51:03;;;;;;;25.20;20.90;;;17.00;99.90;;;;;;5015450;28;20053;-63
2023/09/18 00:53:31;;;;;;;34.88;23.98;;;16.90;99.90;;;;;;5053770;28;20048;-64
2023/09/18 00:56:00;;;;;;;35.90;25.70;;;16.90;99.90;;;;;;5032769;28;20049;-63
2023/09/18 00:58:27;;;;;;;33.20;24.25;;;17.00;99.90;;;;;;5032159;28;20999;-63
2023/09/18 01:00:54;;;;;;;29.30;23.27;;;17.00;99.90;;;;;;5033159;28;20083;-63
2023/09/18 01:03:25;;;;;;;34.33;25.52;;;17.00;99.90;;;;;;5032925;28;20064;-63
2023/09/18 01:05:52;;;;;;;33.65;24.90;;;16.90;99.90;;;;;;5032483;28;20072;-62
2023/09/18 01:08:20;;;;;;;30.08;23.88;;;17.00;99.90;;;;;;5034832;28;20053;-62
2023/09/18 01:10:59;;;;;;;36.45;27.75;;;16.90;99.90;;;;;;5016882;28;20553;-62
2023/09/18 01:13:33;;;;;;;35.35;27.98;;;16.90;99.90;;;;;;5052399;28;20048;-63
2023/09/18 01:16:06;;;;;;;31.17;24.75;;;16.90;99.90;;;;;;5020045;28;20045;-63
2023/09/18 01:18:33;;;;;;;35.53;27.30;;;17.00;99.90;;;;;;5019395;28;20107;-62
2023/09/18 01:20:59;;;;;;;36.75;27.10;;;17.00;99.90;;;;;;5019616;28;20060;-62
2023/09/18 01:23:28;;;;;;;36.15;28.40;;;17.00;99.90;;;;;;5053282;28;20045;-61
2023/09/18 01:25:55;;;;;;;39.05;28.88;;;17.00;99.90;;;;;;5018369;28;20378;-62
2023/09/18 01:28:21;;;;;;;39.38;29.40;;;17.00;99.90;;;;;;5019212;28;20056;-62
2023/09/18 01:30:48;;;;;;;37.85;28.15;;;17.00;99.90;;;;;;5017856;28;20091;-62
2023/09/18 01:33:16;;;;;;;40.40;29.85;;;17.00;99.90;;;;;;5052799;28;20413;-62
2023/09/18 01:35:45;;;;;;;39.75;30.50;;;17.10;99.90;;;;;;5019787;28;20049;-61
2023/09/18 01:38:12;;;;;;;35.65;28.63;;;17.10;99.90;;;;;;5019684;28;20072;-62
2023/09/18 01:40:42;;;;;;;40.88;31.58;;;17.00;99.90;;;;;;5019235;28;20073;-61
2023/09/18 01:43:09;;;;;;;41.25;30.70;;;17.10;99.90;;;;;;5031990;28;20088;-61
2023/09/18 01:45:37;;;;;;;40.13;28.73;;;17.10;99.90;;;;;;5032406;28;20114;-62
2023/09/18 01:48:06;;;;;;;38.42;29.45;;;17.00;99.90;;;;;;5033534;28;20049;-61
2023/09/18 01:50:33;;;;;;;41.25;29.55;;;17.00;99.90;;;;;;5031883;28;20110;-61
2023/09/18 01:53:00;;;;;;;41.60;29.50;;;17.00;99.90;;;;;;5031747;28;20049;-62
2023/09/18 01:55:28;;;;;;;38.08;29.00;;;17.00;99.90;;;;;;5033185;28;20064;-61
2023/09/18 01:57:57;;;;;;;40.92;29.10;;;17.00;99.90;;;;;;5034232;28;20129;-61
2023/09/18 02:00:24;;;;;;;38.47;29.45;;;17.00;99.90;;;;;;5033859;28;20048;-61
2023/09/18 02:02:51;;;;;;;38.80;28.75;;;17.00;99.90;;;;;;5030132;28;20057;-62
2023/09/18 02:05:18;;;;;;;38.53;29.08;;;17.00;99.90;;;;;;5031746;28;20515;-61
2023/09/18 02:07:44;;;;;;;33.13;26.73;;;17.00;99.90;;;;;;5031953;28;20065;-61
2023/09/18 02:10:12;;;;;;;39.30;27.10;;;17.10;99.90;;;;;;5031635;28;20053;-62
2023/09/18 02:12:40;;;;;;;37.25;26.45;;;17.10;99.90;;;;;;5031438;28;20114;-61
2023/09/18 02:15:11;;;;;;;35.30;27.90;;;17.10;99.90;;;;;;5033530;28;20084;-61
2023/09/18 02:17:38;;;;;;;37.13;27.25;;;17.20;99.90;;;;;;5031170;28;20413;-61
2023/09/18 02:20:11;;;;;;;36.72;26.40;;;17.20;99.90;;;;;;5031638;28;20048;-62
2023/09/18 02:22:39;;;;;;;33.25;26.42;;;17.20;99.90;;;;;;5019137;28;20128;-61
2023/09/18 02:25:08;;;;;;;35.50;26.45;;;17.30;99.90;;;;;;5052062;28;20068;-62
2023/09/18 02:27:34;;;;;;;31.77;25.33;;;17.30;99.90;;;;;;5019197;28;20095;-61
2023/09/18 02:30:01;;;;;;;33.20;24.65;;;17.30;99.90;;;;;;5015928;28;20048;-61
2023/09/18 02:32:30;;;;;;;33.15;25.65;;;17.40;99.90;;;;;;5052189;28;20049;-62
2023/09/18 02:34:57;;;;;;;30.95;24.02;;;17.40;99.90;;;;;;5016469;28;20041;-61
2023/09/18 02:37:23;;;;;;;28.92;23.65;;;17.40;99.90;;;;;;5018099;28;20498;-61
2023/09/18 02:39:50;;;;;;;30.77;24.50;;;17.40;99.90;;;;;;5016651;28;20091;-62
2023/09/18 02:42:17;;;;;;;26.83;23.25;;;17.50;99.90;;;;;;5051687;28;20091;-62
2023/09/18 02:44:44;;;;;;;29.05;23.98;;;17.50;99.90;;;;;;5051228;28;20076;-61
2023/09/18 02:47:11;;;;;;;28.75;22.85;;;17.50;99.90;;;;;;5018578;28;20489;-61
2023/09/18 02:49:40;;;;;;;30.58;23.65;;;17.50;99.90;;;;;;5028471;28;20053;-61
2023/09/18 02:52:07;;;;;;;30.02;23.55;;;17.50;99.90;;;;;;5030345;28;20440;-62
2023/09/18 02:54:34;;;;;;;28.88;22.10;;;17.50;99.90;;;;;;5030307;28;20060;-62
2023/09/18 02:57:01;;;;;;;32.60;23.38;;;17.60;99.90;;;;;;5030939;28;20405;-61
2023/09/18 02:59:28;;;;;;;28.48;22.40;;;17.60;99.90;;;;;;5030083;28;20048;-61
2023/09/18 03:01:55;;;;;;;27.75;21.90;;;17.60;99.90;;;;;;5030657;28;20060;-61
2023/09/18 03:04:21;;;;;;;27.17;21.67;;;17.60;99.90;;;;;;5032553;28;20493;-62
2023/09/18 03:06:50;;;;;;;27.33;20.88;;;17.60;99.90;;;;;;5030186;28;20397;-62
2023/09/18 03:09:18;;;;;;;28.13;21.55;;;17.60;99.90;;;;;;5030815;28;20073;-62
2023/09/18 03:11:45;;;;;;;23.88;19.27;;;17.60;99.90;;;;;;5017870;28;20084;-62
2023/09/18 03:14:11;;;;;;;25.77;20.75;;;17.60;99.90;;;;;;5017927;28;20053;-62
2023/09/18 03:16:38;;;;;;;23.63;20.02;;;17.60;99.90;;;;;;5030293;28;20520;-61
2023/09/18 03:19:05;;;;;;;22.75;18.27;;;17.60;99.90;;;;;;5031912;28;20053;-61
2023/09/18 03:21:35;;;;;;;22.77;18.45;;;17.60;99.90;;;;;;5028334;28;20444;-62
2023/09/18 03:24:04;;;;;;;22.83;18.98;;;17.60;99.90;;;;;;5030458;28;20071;-61
2023/09/18 03:26:31;;;;;;;22.02;18.27;;;17.60;99.90;;;;;;5029735;28;20132;-61
2023/09/18 03:28:58;;;;;;;23.27;18.02;;;17.70;99.90;;;;;;5032604;28;20054;-62
2023/09/18 03:31:25;;;;;;;22.45;18.38;;;17.80;99.90;;;;;;5032409;28;20045;-61
2023/09/18 03:33:52;;;;;;;22.52;18.23;;;17.80;99.90;;;;;;5031860;28;20176;-61
2023/09/18 03:36:22;;;;;;;20.80;18.00;;;17.80;99.90;;;;;;5030152;28;20045;-61
2023/09/18 03:38:49;;;;;;;23.20;18.88;;;17.70;99.90;;;;;;5032735;28;20371;-62
2023/09/18 03:41:17;;;;;;;26.27;19.25;;;17.80;99.90;;;;;;5031847;28;20111;-62
2023/09/18 03:43:44;;;;;;;20.60;17.75;;;17.70;99.90;;;;;;5015287;28;20524;-62
2023/09/18 03:46:11;;;;;;;19.27;15.30;;;17.80;99.90;;;;;;5051008;28;20048;-63
2023/09/18 03:48:38;;;;;;;22.05;16.15;;;17.80;99.90;;;;;;5027704;28;20079;-62
2023/09/18 03:51:05;;;;;;;21.23;15.10;;;17.90;99.90;;;;;;5024332;28;20080;-62
2023/09/18 03:53:34;;;;;;;24.92;17.80;;;18.00;99.90;;;;;;5024910;28;20067;-62
2023/09/18 03:56:01;;;;;;;23.70;17.92;;;18.00;99.90;;;;;;5029911;28;20080;-64
2023/09/18 03:58:29;;;;;;;21.52;17.38;;;18.00;99.90;;;;;;5040259;28;20057;-64
2023/09/18 04:00:57;;;;;;;19.33;16.25;;;18.00;99.90;;;;;;5032494;28;20094;-62
2023/09/18 04:03:24;;;;;;;20.40;16.88;;;18.00;99.90;;;;;;5029550;28;20480;-63
2023/09/18 04:05:50;;;;;;;23.35;17.75;;;18.00;99.90;;;;;;5030685;28;20057;-63
2023/09/18 04:08:17;;;;;;;17.80;14.88;;;18.00;99.90;;;;;;5024618;28;20496;-62
2023/09/18 04:10:44;;;;;;;23.27;15.05;;;18.00;99.90;;;;;;5033162;28;20118;-62
2023/09/18 04:13:12;;;;;;;18.55;15.30;;;18.10;99.90;;;;;;5029359;28;20061;-63
2023/09/18 04:15:40;;;;;;;17.73;14.45;;;18.00;99.90;;;;;;5027160;28;20099;-62
2023/09/18 04:18:07;;;;;;;19.52;15.77;;;18.10;99.90;;;;;;5028897;28;20053;-62
2023/09/18 04:20:35;;;;;;;20.63;14.38;;;18.20;99.90;;;;;;5035935;28;20437;-62
2023/09/18 04:23:22;;;;;;;16.23;13.02;;;18.20;99.90;;;;;;5022298;28;20071;-62
2023/09/18 04:25:49;;;;;;;18.38;15.50;;;18.50;99.90;;;;;;5032240;28;20075;-62
2023/09/18 04:28:18;;;;;;;23.20;13.40;;;18.40;99.90;;;;;;5052689;28;20056;-63
2023/09/18 04:30:47;;;;;;;17.67;11.73;;;18.30;99.90;;;;;;5027079;28;20057;-63
2023/09/18 04:33:14;;;;;;;17.95;9.88;;;18.50;99.90;;;;;;5024795;28;20045;-63
2023/09/18 04:35:41;;;;;;;17.25;12.88;;;18.50;99.90;;;;;;5026228;28;20044;-62
2023/09/18 04:38:10;;;;;;;17.17;14.07;;;18.40;99.90;;;;;;5022328;28;20045;-62
2023/09/18 04:40:37;;;;;;;16.25;14.07;;;18.40;99.90;;;;;;5026929;28;20142;-62
2023/09/18 04:43:04;;;;;;;15.70;13.52;;;18.30;99.90;;;;;;5023802;28;20413;-62
2023/09/18 04:45:31;;;;;;;18.48;14.57;;;18.20;99.90;;;;;;5019179;28;20049;-62
2023/09/18 04:48:00;;;;;;;16.67;13.98;;;18.20;99.90;;;;;;5030870;28;20049;-62
2023/09/18 04:50:27;;;;;;;18.45;15.30;;;18.10;99.90;;;;;;5046857;28;20068;-61
2023/09/18 04:52:55;;;;;;;17.00;14.80;;;18.10;99.90;;;;;;5049780;28;20045;-62
2023/09/18 04:55:23;;;;;;;17.45;13.43;;;18.10;99.90;;;;;;5031434;28;20057;-62
2023/09/18 04:57:50;;;;;;;16.85;14.30;;;18.10;99.90;;;;;;5027105;28;20057;-61
2023/09/18 05:00:17;;;;;;;19.75;14.75;;;18.10;99.90;;;;;;5030873;28;20049;-62
2023/09/18 05:02:44;;;;;;;20.40;13.85;;;17.90;99.90;;;;;;5029201;28;20208;-62
2023/09/18 05:05:13;;;;;;;19.58;14.15;;;18.10;99.90;;;;;;5039746;28;20462;-62
2023/09/18 05:07:40;;;;;;;25.17;14.80;;;18.10;99.90;;;;;;5024803;28;20056;-62
2023/09/18 05:10:08;;;;;;;16.38;14.10;;;18.10;99.90;;;;;;5034044;28;20055;-62
2023/09/18 05:12:35;;;;;;;17.40;14.10;;;18.10;99.90;;;;;;5022655;28;20053;-61
2023/09/18 05:15:04;;;;;;;26.33;13.77;;;18.10;99.90;;;;;;5039089;28;20060;-62
2023/09/18 05:17:46;;;;;;;17.38;13.30;;;18.10;99.90;;;;;;5029625;28;20045;-62
2023/09/18 05:20:17;;;;;;;16.60;12.02;;;18.10;99.90;;;;;;5021833;28;20068;-62
2023/09/18 05:22:44;;;;;;;15.82;13.43;;;18.10;99.90;;;;;;5024161;28;20057;-62
2023/09/18 05:25:11;;;;;;;16.85;13.35;;;18.20;99.90;;;;;;5044806;28;20041;-62
2023/09/18 05:27:43;;;;;;;15.82;12.73;;;18.20;99.90;;;;;;5035894;28;20114;-62
2023/09/18 05:30:15;;;;;;;16.95;13.05;;;18.20;99.90;;;;;;5022399;28;20393;-61
2023/09/18 05:32:43;;;;;;;15.85;11.90;;;18.20;99.90;;;;;;5022538;28;20433;-62
2023/09/18 05:35:12;;;;;;;16.00;13.15;;;18.20;99.90;;;;;;5042631;28;20489;-62
2023/09/18 05:37:41;;;;;;;14.63;12.68;;;18.30;99.90;;;;;;5028373;28;20075;-63
2023/09/18 05:40:10;;;;;;;17.58;12.23;;;18.30;99.90;;;;;;5037433;28;20053;-61
2023/09/18 05:42:37;;;;;;;16.02;12.88;;;18.30;99.90;;;;;;5038217;28;20443;-61
2023/09/18 05:45:05;;;;;;;16.00;12.07;;;18.30;99.90;;;;;;5028693;28;20053;-61
2023/09/18 05:47:33;;;;;;;17.42;12.30;;;18.30;99.90;;;;;;5023768;28;20049;-62
2023/09/18 05:50:00;;;;;;;15.02;12.15;;;18.30;99.90;;;;;;5037959;28;20049;-61
2023/09/18 05:52:27;;;;;;;15.70;11.48;;;18.30;99.90;;;;;;5041056;28;20052;-62
2023/09/18 05:54:55;;;;;;;15.40;11.38;;;18.40;99.90;;;;;;5041360;28;20056;-61
2023/09/18 05:57:22;;;;;;;14.00;10.90;;;18.40;99.90;;;;;;5050431;28;20056;-61
2023/09/18 05:59:49;;;;;;;14.13;10.52;;;18.50;99.90;;;;;;5025209;28;20111;-61
2023/09/18 06:02:16;;;;;;;13.02;10.43;;;18.50;99.90;;;;;;5018749;28;20448;-64
2023/09/18 06:04:44;;;;;;;12.98;10.32;;;18.50;99.90;;;;;;5052619;28;20056;-64
2023/09/18 06:07:12;;;;;;;14.77;10.57;;;18.60;99.90;;;;;;5018850;28;20473;-64
2023/09/18 06:09:39;;;;;;;13.13;10.10;;;18.60;99.90;;;;;;5018616;28;20053;-64
2023/09/18 06:12:09;;;;;;;14.00;9.98;;;18.60;99.90;;;;;;5018779;28;20059;-63
2023/09/18 06:14:38;;;;;;;16.20;10.23;;;18.70;99.90;;;;;;5051871;28;20075;-63
2023/09/18 06:17:05;;;;;;;10.75;9.00;;;18.70;99.90;;;;;;5017813;28;20050;-61
2023/09/18 06:19:35;;;;;;;11.05;9.02;;;18.70;99.90;;;;;;5022008;28;20085;-62
2023/09/18 06:22:03;;;;;;;13.68;10.07;;;18.70;99.90;;;;;;5028363;28;20064;-62
2023/09/18 06:24:29;;;;;;;12.13;10.15;;;18.80;99.90;;;;;;5046894;28;20056;-61
2023/09/18 06:26:56;;;;;;;11.98;9.40;;;18.70;99.90;;;;;;5023093;28;20092;-61
2023/09/18 06:29:25;;;;;;;15.70;9.98;;;18.70;99.90;;;;;;5016304;28;20072;-62
2023/09/18 06:31:51;;;;;;;13.35;9.23;;;18.70;99.90;;;;;;5019262;28;20428;-63
2023/09/18 06:34:18;;;;;;;12.68;9.05;;;18.70;99.90;;;;;;5045232;28;20049;-64
2023/09/18 06:36:45;;;;;;;10.68;8.82;;;18.70;99.90;;;;;;5017244;28;20489;-64
2023/09/18 06:39:12;;;;;;;13.75;8.35;;;18.70;99.90;;;;;;5015028;28;20053;-63
2023/09/18 06:41:39;;;;;;;10.05;8.48;;;18.70;99.90;;;;;;5018337;28;20056;-63
2023/09/18 06:44:06;;;;;;;12.35;8.77;;;18.80;99.90;;;;;;5016479;28;20053;-64
2023/09/18 06:46:35;;;;;;;16.90;9.07;;;18.80;99.90;;;;;;5018577;28;20052;-64
2023/09/18 06:49:03;;;;;;;13.23;8.55;;;18.80;99.90;;;;;;5030872;28;20048;-63
2023/09/18 06:51:30;;;;;;;14.65;8.65;;;18.90;99.90;;;;;;5030643;28;20064;-63
2023/09/18 06:53:57;;;;;;;14.80;9.40;;;18.90;99.90;;;;;;5030972;28;20512;-63
2023/09/18 06:56:24;;;;;;;12.48;9.05;;;18.90;99.90;;;;;;5032503;28;20057;-63
2023/09/18 06:58:52;;;;;;;11.77;8.38;;;18.90;99.90;;;;;;5030307;28;20061;-63
2023/09/18 07:01:19;;;;;;;11.40;8.70;;;18.90;99.90;;;;;;5030709;28;20453;-64
2023/09/18 07:03:47;;;;;;;14.88;9.15;;;18.90;99.90;;;;;;5030954;28;20551;-64
2023/09/18 07:06:15;;;;;;;11.48;8.57;;;18.90;99.90;;;;;;5030540;28;20100;-64
2023/09/18 07:08:43;;;;;;;12.73;9.50;;;18.90;99.90;;;;;;5018535;28;20069;-64
2023/09/18 07:11:10;;;;;;;13.85;9.82;;;18.90;99.90;;;;;;5016023;28;20057;-64
2023/09/18 07:13:38;;;;;;;15.18;9.90;;;19.00;99.90;;;;;;5018134;28;20057;-64
2023/09/18 07:16:05;;;;;;;16.58;9.60;;;19.00;99.90;;;;;;5018235;28;20489;-64
2023/09/18 07:18:32;;;;;;;16.55;11.05;;;18.90;99.90;;;;;;5017780;28;20045;-64
2023/09/18 07:21:01;;;;;;;17.25;11.95;;;18.90;99.90;;;;;;5018236;28;20050;-63
2023/09/18 07:23:28;;;;;;;17.10;12.45;;;18.90;99.90;;;;;;5018303;28;20405;-63
2023/09/18 07:25:55;;;;;;;14.85;11.05;;;18.90;99.90;;;;;;5017635;28;20054;-64
2023/09/18 07:28:22;;;;;;;17.85;12.02;;;18.90;99.90;;;;;;5018366;28;20060;-64
2023/09/18 07:30:49;;;;;;;16.58;11.65;;;18.90;99.90;;;;;;5018287;28;20516;-64
2023/09/18 07:33:17;;;;;;;16.85;11.70;;;18.80;99.90;;;;;;5029249;28;20048;-64
2023/09/18 07:35:47;;;;;;;17.20;12.27;;;18.80;99.90;;;;;;5032350;28;20053;-63
2023/09/18 07:38:15;;;;;;;18.13;12.23;;;18.80;99.90;;;;;;5029994;28;20048;-63
2023/09/18 07:40:42;;;;;;;16.77;11.75;;;18.70;99.90;;;;;;5015436;28;20501;-64
2023/09/18 07:43:09;;;;;;;15.93;11.95;;;18.70;99.90;;;;;;5017949;28;20057;-64
2023/09/18 07:45:38;;;;;;;16.55;12.35;;;18.60;99.90;;;;;;5051089;28;20041;-64
2023/09/18 07:48:06;;;;;;;20.77;13.45;;;18.70;99.90;;;;;;5050223;28;20098;-63
2023/09/18 07:50:33;;;;;;;19.17;13.20;;;18.60;99.90;;;;;;5050919;28;20079;-63
2023/09/18 07:53:00;;;;;;;19.20;13.73;;;18.60;99.90;;;;;;5018146;28;20053;-64
2023/09/18 07:55:29;;;;;;;20.92;13.68;;;18.60;99.90;;;;;;5017449;28;20064;-63
2023/09/18 07:57:56;;;;;;;22.75;15.27;;;18.60;99.90;;;;;;5051157;28;20139;-64
2023/09/18 08:00:25;;;;;;;18.52;13.25;;;18.60;99.90;;;;;;5050519;28;20065;-63
2023/09/18 08:02:58;;;;;;;20.63;12.70;;;18.60;99.90;;;;;;5054896;28;20052;-64
2023/09/18 08:05:27;;;;;;;19.85;14.30;;;18.60;99.90;;;;;;5021926;28;20406;-63
2023/09/18 08:07:55;;;;;;;17.92;13.50;;;18.60;99.90;;;;;;5054292;28;20056;-64
2023/09/18 08:10:23;;;;;;;20.40;13.98;;;18.70;99.90;;;;;;5021783;28;20048;-64
2023/09/18 08:12:52;;;;;;;20.30;14.43;;;18.70;99.90;;;;;;5021785;28;20045;-64
2023/09/18 08:15:20;;;;;;;21.48;13.68;;;18.60;99.90;;;;;;5054643;28;20057;-63
2023/09/18 08:17:48;;;;;;;20.27;14.02;;;18.70;99.90;;;;;;5021187;28;20052;-63
2023/09/18 08:20:15;;;;;;;18.20;13.18;;;18.60;99.90;;;;;;5021710;28;20516;-63
2023/09/18 08:22:43;;;;;;;17.88;13.45;;;18.60;99.90;;;;;;5020771;28;20106;-64
2023/09/18 08:25:10;;;;;;;22.35;13.98;;;18.60;99.90;;;;;;5054800;28;20048;-63
2023/09/18 08:27:40;;;;;;;19.83;13.48;;;18.60;99.90;;;;;;5054293;28;20541;-63
2023/09/18 08:30:10;;;;;;;19.48;12.95;;;18.60;99.90;;;;;;5020741;28;20382;-64
2023/09/18 08:32:37;;;;;;;20.38;13.13;;;18.60;99.90;;;;;;5052306;28;20041;-63
2023/09/18 08:35:04;;;;;;;16.45;12.95;;;18.60;99.90;;;;;;5021000;28;20501;-63
2023/09/18 08:37:31;;;;;;;16.02;12.27;;;18.60;99.90;;;;;;5020087;28;20042;-63
2023/09/18 08:39:59;;;;;;;17.75;12.25;;;18.60;99.90;;;;;;5053842;28;20049;-63
2023/09/18 08:42:29;;;;;;;15.75;11.68;;;18.70;99.90;;;;;;5020526;28;20416;-63
2023/09/18 08:44:59;;;;;;;14.38;10.63;;;18.70;99.90;;;;;;5021055;28;20060;-63
2023/09/18 08:47:28;;;;;;;;;;;18.70;99.90;;;;;;5021135;28;20057;-63
2023/09/18 08:49:56;;;;;;;13.50;10.50;;;18.70;99.90;;;;;;5052366;28;19925;-63
2023/09/18 08:52:23;;;;;;;15.75;10.70;;;18.90;99.90;;;;;;5035488;28;20470;-63
2023/09/18 08:54:53;;;;;;;14.63;10.65;;;18.90;99.90;;;;;;5032716;28;20064;-63
2023/09/18 08:57:20;;;;;;;14.45;10.02;;;19.00;99.90;;;;;;5034307;28;20508;-64
2023/09/18 08:59:50;;;;;;;13.88;10.07;;;19.10;99.90;;;;;;5033196;28;20461;-63
2023/09/18 09:02:17;;;;;;;13.85;9.60;;;19.20;99.90;;;;;;5033212;28;20052;-63
2023/09/18 09:04:45;;;;;;;12.32;9.15;;;19.20;99.90;;;;;;5034702;28;20516;-64
2023/09/18 09:07:12;;;;;;;14.63;9.50;;;19.20;99.90;;;;;;5034927;28;20049;-65
2023/09/18 09:09:40;;;;;;;17.35;10.10;;;19.20;99.90;;;;;;5032775;28;20049;-64
2023/09/18 09:12:07;;;;;;;13.93;9.70;;;19.20;99.90;;;;;;5034139;28;20054;-64
2023/09/18 09:14:34;;;;;;;13.73;10.45;;;19.20;99.90;;;;;;5032962;28;20053;-62
2023/09/18 09:17:02;;;;;;;14.65;9.60;;;19.20;99.90;;;;;;5034761;28;20068;-64
2023/09/18 09:19:31;;;;;;;12.93;10.13;;;19.20;99.90;;;;;;5032184;28;20099;-64
2023/09/18 09:22:00;;;;;;;13.10;10.13;;;19.20;99.90;;;;;;5034883;28;20394;-64
2023/09/18 09:24:41;;;;;;;15.13;10.50;;;19.20;99.90;;;;;;5032288;28;20053;-63
2023/09/18 09:27:09;;;;;;;16.63;10.32;;;19.20;99.90;;;;;;5032756;28;20485;-63
2023/09/18 09:29:36;;;;;;;15.60;9.10;;;19.30;99.90;;;;;;5034539;28;20509;-63
2023/09/18 09:32:17;;;;;;;15.07;9.55;;;19.40;99.90;;;;;;5031969;28;20056;-63
2023/09/18 09:34:46;;;;;;;15.05;9.48;;;19.50;99.90;;;;;;5021631;28;20056;-63
2023/09/18 09:37:14;;;;;;;11.27;9.32;;;19.50;99.90;;;;;;5053192;28;20098;-64
2023/09/18 09:39:49;;;;;;;13.93;10.00;;;19.60;99.90;;;;;;5021814;28;20493;-64
2023/09/18 09:42:23;;;;;;;11.80;9.40;;;19.60;99.90;;;;;;5030441;28;20049;-64
2023/09/18 09:45:04;;;;;;;12.52;9.68;;;19.60;99.90;;;;;;5032315;28;20052;-66
2023/09/18 09:47:34;;;;;;;15.48;9.98;;;19.70;99.90;;;;;;5050788;28;20045;-64
2023/09/18 09:50:09;;;;;;;14.88;10.50;;;19.80;99.90;;;;;;5034586;28;20433;-64
2023/09/18 09:52:42;;;;;;;13.15;10.23;;;19.80;99.90;;;;;;5034018;28;20497;-64
2023/09/18 09:55:20;;;;;;;12.35;10.07;;;19.80;99.90;;;;;;5031961;28;20410;-64
2023/09/18 09:57:51;;;;;;;14.18;10.05;;;19.80;99.90;;;;;;5017231;28;20489;-64
2023/09/18 10:00:30;;;;;;;11.00;9.68;;;19.90;99.90;;;;;;5018932;28;20049;-64
2023/09/18 10:03:02;;;;;;;14.75;10.05;;;19.90;99.90;;;;;;5032224;28;20104;-64
2023/09/18 10:05:32;;;;;;;13.20;10.60;;;20.00;99.90;;;;;;5031653;28;20111;-64
2023/09/18 10:08:02;;;;;;;;;;;20.10;99.90;;;;;;5031722;28;20044;-65
2023/09/18 10:10:32;;;;;;;16.23;11.43;;;20.20;99.90;;;;;;5031681;28;19921;-65
2023/09/18 10:13:03;;;;;;;17.73;12.00;;;20.20;99.90;;;;;;5019578;28;20103;-65
2023/09/18 10:15:38;;;;;;;14.85;11.25;;;20.40;99.90;;;;;;5018786;28;20048;-65
2023/09/18 10:18:08;;;;;;;13.35;11.65;;;20.60;99.90;;;;;;5019230;28;20539;-64
2023/09/18 10:20:42;;;;;;;16.93;11.20;;;20.80;99.90;;;;;;5019190;28;20056;-63
2023/09/18 10:23:23;;;;;;;13.82;10.70;;;21.00;99.90;;;;;;5052096;28;20385;-63
2023/09/18 10:25:54;;;;;;;14.30;10.93;;;21.20;99.90;;;;;;5019380;28;20052;-64
2023/09/18 10:28:23;;;;;;;13.85;10.95;;;21.40;99.90;;;;;;5018117;28;20576;-64
2023/09/18 10:30:52;;;;;;;16.25;10.98;;;21.70;99.90;;;;;;5019106;28;20049;-63
2023/09/18 10:33:19;;;;;;;15.05;10.50;;;21.90;99.90;;;;;;5050180;28;20382;-65
2023/09/18 10:35:47;;;;;;;13.57;10.60;;;22.10;99.90;;;;;;5018503;28;20060;-64
2023/09/18 10:38:17;;;;;;;13.20;10.30;;;22.20;99.90;;;;;;5018725;28;20102;-64
2023/09/18 10:40:47;;;;;;;13.10;9.30;;;22.30;99.90;;;;;;5018948;28;20053;-63
2023/09/18 10:43:17;;;;;;;12.07;9.40;;;22.20;99.90;;;;;;5018405;28;20076;-63
2023/09/18 10:45:45;;;;;;;11.82;9.45;;;22.20;99.90;;;;;;5018978;28;20045;-63
2023/09/18 10:48:13;;;;;;;15.20;8.70;;;22.60;99.90;;;;;;5018418;28;20045;-63
2023/09/18 10:50:41;;;;;;;9.90;8.25;;;23.40;99.90;;;;;;5051502;28;20080;-63
2023/09/18 10:53:08;;;;;;;9.98;7.90;;;23.40;99.90;;;;;;5033341;28;20055;-63
2023/09/18 10:55:38;;;;;;;10.98;7.75;;;23.20;99.90;;;;;;5030367;28;20061;-64
2023/09/18 10:58:05;;;;;;;11.07;7.75;;;23.10;99.90;;;;;;5030396;28;20409;-63
2023/09/18 11:00:36;;;;;;;7.95;6.90;;;23.30;99.90;;;;;;5030902;28;20478;-64
2023/09/18 11:03:17;;;;;;;8.18;6.57;;;23.70;99.90;;;;;;5030361;28;20051;-64
2023/09/18 11:05:46;;;;;;;9.07;5.80;;;24.00;99.90;;;;;;5032575;28;20041;-64
2023/09/18 11:08:27;;;;;;;7.97;5.73;;;25.00;99.90;;;;;;5032694;28;20057;-64
2023/09/18 11:11:04;;;;;;;7.38;5.22;;;25.60;99.90;;;;;;5032136;28;20506;-64
2023/09/18 11:13:35;;;;;;;8.55;4.75;;;25.50;99.90;;;;;;5049663;28;20045;-63
2023/09/18 11:16:03;;;;;;;7.05;5.25;;;25.90;99.90;;;;;;5018249;28;20053;-64
2023/09/18 11:18:34;;;;;;;9.65;5.53;;;25.70;99.90;;;;;;5050699;28;20434;-64
2023/09/18 11:21:09;;;;;;;6.07;4.35;;;25.30;99.90;;;;;;5018362;28;20489;-64
2023/09/18 11:23:37;;;;;;;10.93;5.05;;;24.60;99.90;;;;;;5018545;28;20406;-64
2023/09/18 11:26:08;;;;;;;7.97;5.05;;;24.30;99.90;;;;;;5015827;28;20104;-64
2023/09/18 11:28:37;;;;;;;6.25;4.35;;;23.90;99.90;;;;;;5051107;28;20052;-63
2023/09/18 11:31:04;;;;;;;6.80;4.60;;;23.80;99.90;;;;;;5017647;28;20064;-63
2023/09/18 11:33:32;;;;;;;6.43;4.50;;;25.00;99.90;;;;;;5051507;28;20049;-63
2023/09/18 11:36:06;;;;;;;13.07;4.55;;;26.30;99.90;;;;;;5017849;28;20111;-64
2023/09/18 11:38:35;;;;;;;6.72;4.03;;;26.90;99.90;;;;;;5050466;28;20049;-64
2023/09/18 11:41:26;;;;;;;7.78;3.80;;;27.80;99.90;;;;;;5018021;28;20498;-64
2023/09/18 11:43:53;;;;;;;6.28;4.15;;;28.20;99.90;;;;;;5018093;28;20059;-63
2023/09/18 11:46:21;;;;;;;6.25;3.65;;;28.40;99.90;;;;;;5050515;28;20511;-64
2023/09/18 11:48:51;;;;;;;4.93;3.13;;;28.30;99.90;;;;;;5050939;28;20535;-65
2023/09/18 11:51:24;;;;;;;6.80;3.58;;;28.00;99.90;;;;;;5017843;28;20485;-63
2023/09/18 11:53:56;;;;;;;5.68;3.30;;;28.10;99.90;;;;;;5029665;28;20048;-63
2023/09/18 11:56:22;;;;;;;7.57;4.13;;;27.70;99.90;;;;;;5029823;28;20115;-63
2023/09/18 11:58:54;;;;;;;5.70;3.42;;;26.80;99.90;;;;;;5032361;28;20046;-63
2023/09/18 12:01:22;;;;;;;4.65;3.30;;;26.30;99.90;;;;;;5017928;28;20065;-63
2023/09/18 12:03:54;;;;;;;7.15;3.50;;;26.00;99.90;;;;;;5017818;28;20067;-65
2023/09/18 12:06:21;;;;;;;8.48;3.50;;;25.60;99.90;;;;;;5017357;28;20060;-62
2023/09/18 12:08:50;;;;;;;11.75;4.07;;;25.20;99.90;;;;;;5017580;28;20053;-62
2023/09/18 12:11:19;;;;;;;6.80;3.78;;;25.10;99.90;;;;;;5017682;28;20045;-63
2023/09/18 12:13:46;;;;;;;4.85;3.33;;;25.30;99.90;;;;;;5017063;28;20068;-63
2023/09/18 12:16:15;;;;;;;5.13;3.20;;;25.70;99.90;;;;;;5017380;28;20532;-63
2023/09/18 12:18:47;;;;;;;6.68;3.35;;;26.00;99.90;;;;;;5017346;28;20040;-63
2023/09/18 12:21:15;;;;;;;7.47;3.13;;;25.80;99.90;;;;;;5016993;28;20092;-63
2023/09/18 12:23:43;;;;;;;7.25;3.38;;;25.70;99.90;;;;;;5050737;28;20044;-62
2023/09/18 12:26:13;;;;;;;5.18;3.50;;;25.40;99.90;;;;;;5017332;28;20136;-62
2023/09/18 12:28:41;;;;;;;6.65;3.58;;;25.20;99.90;;;;;;5016849;28;20049;-63
2023/09/18 12:31:11;;;;;;;6.47;3.65;;;25.90;99.90;;;;;;5050841;28;20045;-63
2023/09/18 12:33:41;;;;;;;6.05;3.55;;;26.50;99.90;;;;;;5017310;28;20060;-63
2023/09/18 12:36:09;;;;;;;5.88;3.05;;;26.90;99.90;;;;;;5016866;28;20053;-63
2023/09/18 12:38:36;;;;;;;6.00;3.00;;;27.30;99.90;;;;;;5016991;28;20056;-64